Time,TemperatureF,DewpointF,PressureIn,WindDirection,WindDirectionDegrees,WindSpeedMPH,WindSpeedGustMPH,Humidity,HourlyPrecipIn,Conditions,Clouds,dailyrainin,SolarRadiationWatts/m^2,SoftwareType,DateUTC
2013-09-29 00:00:00,55.6,53.9,29.74,ESE,109,6.0,11.0,94,0.00,,,0.00,0,Wunderground v.1.15,2013-09-28 23:00:00,
2013-09-29 00:29:00,55.8,53.8,29.74,East,100,6.0,6.0,93,0.00,,,0.00,0,Wunderground v.1.15,2013-09-28 23:29:00,
2013-09-29 01:00:00,55.4,53.4,29.74,East,94,7.0,9.0,93,0.00,,,0.00,0,Wunderground v.1.15,2013-09-29 00:00:00,
2013-09-29 01:29:00,55.5,53.2,29.74,East,96,6.0,6.0,92,0.00,,,0.00,0,Wunderground v.1.15,2013-09-29 00:29:00,
2013-09-29 02:00:00,54.8,53.4,29.74,East,98,7.0,7.0,95,0.00,,,0.00,0,Wunderground v.1.15,2013-09-29 01:00:00,
2013-09-29 02:29:00,56.6,54.3,29.74,SE,128,11.0,15.0,92,0.00,,,0.00,0,Wunderground v.1.15,2013-09-29 01:29:00,
2013-09-29 03:00:00,56.5,53.9,29.74,ESE,109,10.0,12.0,91,0.00,,,0.00,0,Wunderground v.1.15,2013-09-29 02:00:00,
2013-09-29 03:29:00,56.3,53.1,29.73,ESE,123,12.0,12.0,89,0.00,,,0.00,0,Wunderground v.1.15,2013-09-29 02:29:00,
2013-09-29 04:00:00,56.1,52.3,29.74,ESE,113,12.0,12.0,87,0.00,,,0.00,0,Wunderground v.1.15,2013-09-29 03:00:00,
2013-09-29 04:29:00,55.7,51.9,29.73,ESE,115,13.0,13.0,87,0.00,,,0.00,0,Wunderground v.1.15,2013-09-29 03:29:00,
2013-09-29 05:00:00,55.5,52.0,29.73,ESE,123,14.0,17.0,88,0.00,,,0.00,0,Wunderground v.1.15,2013-09-29 04:00:00,
2013-09-29 05:29:00,55.2,52.0,29.73,ESE,109,14.0,14.0,89,0.00,,,0.01,0,Wunderground v.1.15,2013-09-29 04:29:00,
2013-09-29 06:00:00,55.1,52.2,29.73,ESE,109,14.0,14.0,90,0.00,,,0.01,0,Wunderground v.1.15,2013-09-29 05:00:00,
2013-09-29 06:29:00,55.0,52.1,29.73,ESE,113,14.0,14.0,90,0.00,,,0.01,0,Wunderground v.1.15,2013-09-29 05:29:00,
2013-09-29 07:00:00,54.8,52.2,29.74,SE,124,13.0,14.0,91,0.00,,,0.01,0,Wunderground v.1.15,2013-09-29 06:00:00,
2013-09-29 07:29:00,54.8,52.2,29.74,ESE,114,13.0,13.0,91,0.00,,,0.01,5,Wunderground v.1.15,2013-09-29 06:29:00,
2013-09-29 08:00:00,54.9,52.6,29.74,ESE,117,12.0,12.0,92,0.00,,,0.01,7,Wunderground v.1.15,2013-09-29 07:00:00,
2013-09-29 08:29:00,55.2,52.6,29.74,ESE,121,11.0,11.0,91,0.00,,,0.01,11,Wunderground v.1.15,2013-09-29 07:29:00,
2013-09-29 09:00:00,55.2,52.9,29.75,ESE,111,11.0,11.0,92,0.00,,,0.01,32,Wunderground v.1.15,2013-09-29 08:00:00,
2013-09-29 09:29:00,55.7,52.8,29.75,ESE,120,10.0,10.0,90,0.00,,,0.01,70,Wunderground v.1.15,2013-09-29 08:29:00,
2013-09-29 10:00:00,56.0,53.1,29.76,ESE,107,11.0,11.0,90,0.00,,,0.01,95,Wunderground v.1.15,2013-09-29 09:00:00,
2013-09-29 10:29:00,57.1,53.6,29.76,ESE,109,9.0,9.0,88,0.00,,,0.01,192,Wunderground v.1.15,2013-09-29 09:29:00,
2013-09-29 11:00:00,57.2,53.7,29.76,ESE,107,11.0,11.0,88,0.00,,,0.01,190,Wunderground v.1.15,2013-09-29 10:00:00,
2013-09-29 11:29:00,57.8,54.0,29.76,ESE,111,11.0,11.0,87,0.00,,,0.01,232,Wunderground v.1.15,2013-09-29 10:29:00,
2013-09-29 12:00:00,59.0,54.5,29.76,ENE,65,16.0,16.0,85,0.00,,,0.01,274,Wunderground v.1.15,2013-09-29 11:00:00,
2013-09-29 12:29:00,57.7,53.2,29.76,ESE,118,20.0,20.0,85,0.00,,,0.01,274,Wunderground v.1.15,2013-09-29 11:29:00,
2013-09-29 13:00:00,59.0,53.8,29.76,East,94,16.0,18.0,83,0.00,,,0.01,554,Wunderground v.1.15,2013-09-29 12:00:00,
2013-09-29 13:29:00,57.0,52.9,29.77,East,94,17.0,17.0,86,0.00,,,0.01,183,Wunderground v.1.15,2013-09-29 12:29:00,
2013-09-29 14:00:00,57.5,53.0,29.76,ESE,111,16.0,16.0,85,0.00,,,0.01,255,Wunderground v.1.15,2013-09-29 13:00:00,
2013-09-29 14:29:00,56.9,52.4,29.76,ESE,121,15.0,15.0,85,0.00,,,0.01,162,Wunderground v.1.15,2013-09-29 13:29:00,
2013-09-29 15:00:00,57.7,52.6,29.75,ESE,113,14.0,20.0,83,0.00,,,0.01,250,Wunderground v.1.15,2013-09-29 14:00:00,
2013-09-29 15:29:00,60.2,53.7,29.76,ESE,118,12.0,15.0,79,0.00,,,0.01,561,Wunderground v.1.15,2013-09-29 14:29:00,
2013-09-29 16:00:00,58.1,52.6,29.76,East,87,14.0,14.0,82,0.00,,,0.01,227,Wunderground v.1.15,2013-09-29 15:00:00,
2013-09-29 16:29:00,58.1,52.3,29.75,SE,129,14.0,25.0,81,0.00,,,0.01,239,Wunderground v.1.15,2013-09-29 15:29:00,
2013-09-29 17:00:00,58.5,52.4,29.75,East,86,12.0,12.0,80,0.00,,,0.01,153,Wunderground v.1.15,2013-09-29 16:00:00,
2013-09-29 17:29:00,57.8,53.0,29.75,ESE,106,6.0,11.0,84,0.00,,,0.01,84,Wunderground v.1.15,2013-09-29 16:29:00,
2013-09-29 18:00:00,57.3,53.1,29.74,ENE,78,6.0,6.0,86,0.00,,,0.01,86,Wunderground v.1.15,2013-09-29 17:00:00,
2013-09-29 18:29:00,56.9,53.1,29.73,ESE,114,8.0,8.0,87,0.00,,,0.01,39,Wunderground v.1.15,2013-09-29 17:29:00,
2013-09-29 19:00:00,56.2,53.0,29.72,East,96,8.0,9.0,89,0.00,,,0.01,9,Wunderground v.1.15,2013-09-29 18:00:00,
2013-09-29 19:29:00,55.9,53.0,29.73,ESE,103,7.0,7.0,90,0.00,,,0.01,0,Wunderground v.1.15,2013-09-29 18:29:00,
2013-09-29 20:00:00,55.9,53.0,29.72,ESE,104,8.0,8.0,90,0.00,,,0.01,0,Wunderground v.1.15,2013-09-29 19:00:00,
2013-09-29 20:29:00,55.9,53.3,29.72,East,101,8.0,8.0,91,0.00,,,0.01,0,Wunderground v.1.15,2013-09-29 19:29:00,
2013-09-29 21:00:00,56.0,53.4,29.73,ESE,115,10.0,11.0,91,0.00,,,0.01,0,Wunderground v.1.15,2013-09-29 20:00:00,
2013-09-29 21:29:00,56.6,53.1,29.73,ESE,111,11.0,11.0,88,0.00,,,0.01,0,Wunderground v.1.15,2013-09-29 20:29:00,
2013-09-29 22:00:00,56.6,53.1,29.72,SE,136,11.0,11.0,88,0.00,,,0.01,0,Wunderground v.1.15,2013-09-29 21:00:00,
2013-09-29 22:29:00,56.7,53.2,29.72,SE,132,12.0,12.0,88,0.00,,,0.01,0,Wunderground v.1.15,2013-09-29 21:29:00,
2013-09-29 23:00:00,56.5,53.0,29.72,ESE,116,11.0,19.0,88,0.00,,,0.01,0,Wunderground v.1.15,2013-09-29 22:00:00,
2013-09-29 23:29:00,56.3,52.8,29.72,ESE,103,12.0,14.0,88,0.00,,,0.01,0,Wunderground v.1.15,2013-09-29 22:29:00,